Time;durP1;ratioP1;P1;durP2;ratioP2;P2;SDS_P1;SDS_P2;PMS_P1;PMS_P2;Temp;Humidity;BMP_temperature;BMP_pressure;BME280_temperature;BME280_humidity;BME280_pressure;Samples;Min_cycle;Max_cycle;Signal;HPM_P1;HPM_P2
2021/01/08 00:00:34;;;;;;;0.75;0.75;;;4.60;99.90;;;;;;4957672;29;20222;-76
2021/01/08 00:03:00;;;;;;;0.77;0.77;;;4.50;99.90;;;;;;4957559;29;20205;-75
2021/01/08 00:05:25;;;;;;;0.55;0.55;;;4.50;99.90;;;;;;4957339;28;20214;-76
2021/01/08 00:07:51;;;;;;;0.52;0.52;;;4.50;99.90;;;;;;4957298;29;20163;-77
2021/01/08 00:10:17;;;;;;;0.30;0.30;;;4.50;99.90;;;;;;4957413;29;20677;-77
2021/01/08 00:12:42;;;;;;;0.30;0.30;;;4.50;99.90;;;;;;4957434;29;20265;-76
2021/01/08 00:15:08;;;;;;;0.20;0.20;;;4.50;99.90;;;;;;4957338;28;20647;-77
2021/01/08 00:17:34;;;;;;;0.60;0.60;;;4.60;99.90;;;;;;4939777;29;20265;-75
2021/01/08 00:20:00;;;;;;;1.05;1.05;;;4.60;99.90;;;;;;4957195;29;20706;-75
2021/01/08 00:22:26;;;;;;;0.43;0.43;;;4.60;99.90;;;;;;4957307;29;20182;-75
2021/01/08 00:24:52;;;;;;;0.40;0.40;;;4.60;99.90;;;;;;4956618;28;20264;-76
2021/01/08 00:27:19;;;;;;;0.20;0.20;;;4.40;99.90;;;;;;4957013;29;20238;-75
2021/01/08 00:29:44;;;;;;;0.30;0.30;;;4.50;99.90;;;;;;4956843;29;20321;-75
2021/01/08 00:32:10;;;;;;;0.60;0.60;;;4.50;99.90;;;;;;4957106;29;20250;-76
2021/01/08 00:34:36;;;;;;;0.50;0.50;;;4.50;99.90;;;;;;4956810;28;20337;-80
2021/01/08 00:37:02;;;;;;;0.75;0.60;;;4.40;99.90;;;;;;4957079;29;20209;-75
2021/01/08 00:39:28;;;;;;;0.60;0.50;;;4.50;99.90;;;;;;4956839;29;20225;-76
2021/01/08 00:41:54;;;;;;;0.75;0.75;;;4.50;99.90;;;;;;4956596;29;20229;-76
2021/01/08 00:44:19;;;;;;;4.50;0.77;;;4.50;99.90;;;;;;4956659;28;20245;-76
2021/01/08 00:46:47;;;;;;;0.45;0.45;;;4.50;99.90;;;;;;4956838;29;20703;-77
2021/01/08 00:49:13;;;;;;;0.88;0.85;;;4.50;99.90;;;;;;4956744;29;20705;-76
2021/01/08 00:51:39;;;;;;;2.83;0.43;;;4.60;99.90;;;;;;4956758;29;20173;-77
2021/01/08 00:54:05;;;;;;;0.25;0.25;;;4.60;99.90;;;;;;4956203;28;20159;-77
2021/01/08 00:56:31;;;;;;;0.20;0.20;;;4.60;99.90;;;;;;4956533;29;20273;-77
2021/01/08 00:58:57;;;;;;;0.30;0.30;;;4.50;99.90;;;;;;4956513;29;20717;-78
2021/01/08 01:01:23;;;;;;;3.40;1.38;;;4.40;99.90;;;;;;4956363;29;20202;-77
2021/01/08 01:03:49;;;;;;;0.40;0.40;;;4.50;99.90;;;;;;4956354;29;20254;-77
2021/01/08 01:06:28;;;;;;;0.60;0.55;;;4.40;99.90;;;;;;4956119;28;20697;-77
2021/01/08 01:08:55;;;;;;;0.20;0.20;;;4.40;99.90;;;;;;4956398;29;20172;-76
2021/01/08 01:11:22;;;;;;;0.20;0.20;;;4.50;99.90;;;;;;4956175;29;20165;-76
2021/01/08 01:13:49;;;;;;;0.20;0.20;;;4.60;99.90;;;;;;4956274;29;20169;-76
2021/01/08 01:16:16;;;;;;;0.30;0.30;;;4.60;99.90;;;;;;4956138;28;20200;-76
2021/01/08 01:18:43;;;;;;;0.70;0.70;;;4.50;99.90;;;;;;4955930;29;20189;-76
2021/01/08 01:21:09;;;;;;;0.30;0.30;;;4.60;99.90;;;;;;4956059;29;20627;-76
2021/01/08 01:23:35;;;;;;;0.40;0.40;;;4.50;99.90;;;;;;4955981;29;20194;-77
2021/01/08 01:26:00;;;;;;;0.35;0.35;;;4.60;99.90;;;;;;4955949;28;20256;-76
2021/01/08 01:28:26;;;;;;;0.57;0.57;;;4.50;99.90;;;;;;4955803;29;20237;-77
2021/01/08 01:30:52;;;;;;;1.55;0.82;;;4.50;99.90;;;;;;4955751;29;20190;-76
2021/01/08 01:33:17;;;;;;;1.17;1.17;;;4.50;99.90;;;;;;4955865;29;20209;-77
2021/01/08 01:35:43;;;;;;;0.68;0.68;;;4.50;99.90;;;;;;4954870;28;20226;-76
2021/01/08 01:38:08;;;;;;;0.65;0.65;;;4.40;99.90;;;;;;4955610;29;20166;-76
2021/01/08 01:40:34;;;;;;;0.73;0.73;;;4.40;99.90;;;;;;4955983;29;20166;-75
2021/01/08 01:43:00;;;;;;;0.45;0.43;;;4.50;99.90;;;;;;4955639;29;20170;-76
2021/01/08 01:45:25;;;;;;;0.80;0.65;;;4.50;99.90;;;;;;4955657;28;20241;-77
2021/01/08 01:47:51;;;;;;;0.90;0.90;;;4.50;99.90;;;;;;4955353;29;20159;-77
2021/01/08 01:50:17;;;;;;;3.15;1.33;;;4.50;99.90;;;;;;4955675;29;20178;-76
2021/01/08 01:52:43;;;;;;;0.75;0.50;;;4.40;99.90;;;;;;4955567;29;20536;-76
2021/01/08 01:55:09;;;;;;;0.40;0.40;;;4.30;99.90;;;;;;4955573;28;20190;-76
2021/01/08 01:57:34;;;;;;;0.65;0.65;;;4.40;99.90;;;;;;4955426;29;20217;-75
2021/01/08 02:00:00;;;;;;;0.50;0.50;;;4.40;99.90;;;;;;4955062;29;20218;-77
2021/01/08 02:02:33;;;;;;;0.88;0.88;;;4.50;99.90;;;;;;4955566;29;20635;-76
2021/01/08 02:05:01;;;;;;;0.20;0.20;;;4.50;99.90;;;;;;4954964;28;20252;-75
2021/01/08 02:07:30;;;;;;;0.28;0.28;;;4.50;99.90;;;;;;4955205;29;20710;-77
2021/01/08 02:09:57;;;;;;;0.20;0.20;;;4.40;99.90;;;;;;4955217;29;20182;-76
2021/01/08 02:12:25;;;;;;;0.40;0.40;;;4.50;99.90;;;;;;4955498;29;20162;-76
2021/01/08 02:14:52;;;;;;;0.32;0.32;;;4.40;99.90;;;;;;4937734;29;20326;-76
2021/01/08 02:17:18;;;;;;;1.48;0.75;;;4.50;99.90;;;;;;4955285;29;20191;-76
2021/01/08 02:19:50;;;;;;;0.65;0.35;;;4.40;99.90;;;;;;4955015;29;20590;-78
2021/01/08 02:22:32;;;;;;;0.57;0.57;;;4.40;99.90;;;;;;4938096;29;20197;-79
2021/01/08 02:25:09;;;;;;;0.30;0.30;;;4.40;99.90;;;;;;4954805;28;20643;-75
2021/01/08 02:27:36;;;;;;;0.40;0.40;;;4.50;99.90;;;;;;4955103;29;20241;-75
2021/01/08 02:30:04;;;;;;;0.43;0.43;;;4.30;99.90;;;;;;4955137;29;20545;-76
2021/01/08 02:32:30;;;;;;;0.88;0.88;;;4.30;99.90;;;;;;4954736;29;20178;-76
2021/01/08 02:34:56;;;;;;;0.20;0.20;;;4.20;99.90;;;;;;4954815;28;20190;-75
2021/01/08 02:37:22;;;;;;;22.70;2.35;;;4.30;99.90;;;;;;4955172;29;20174;-77
2021/01/08 02:39:49;;;;;;;0.90;0.90;;;4.30;99.90;;;;;;4954970;29;20174;-77
2021/01/08 02:42:16;;;;;;;0.20;0.20;;;4.20;99.90;;;;;;4954672;29;20170;-76
2021/01/08 02:44:41;;;;;;;0.52;0.52;;;4.30;99.90;;;;;;4955021;28;20257;-77
2021/01/08 02:47:07;;;;;;;3.13;0.55;;;4.20;99.90;;;;;;4956452;28;20634;-77
2021/01/08 02:49:33;;;;;;;0.57;0.57;;;4.20;99.90;;;;;;4961518;28;20179;-76
2021/01/08 02:52:04;;;;;;;0.85;0.70;;;4.20;99.90;;;;;;4960936;29;20657;-75
2021/01/08 02:54:31;;;;;;;0.20;0.20;;;4.40;99.90;;;;;;4961191;28;20660;-76
2021/01/08 02:56:59;;;;;;;0.63;0.63;;;4.40;99.90;;;;;;4961258;29;20626;-75
2021/01/08 02:59:26;;;;;;;0.60;0.60;;;4.40;99.90;;;;;;4960780;29;20657;-76
2021/01/08 03:01:52;;;;;;;4.75;2.40;;;4.40;99.90;;;;;;4961229;29;20189;-77
2021/01/08 03:04:18;;;;;;;0.50;0.50;;;4.50;99.90;;;;;;4961078;28;20185;-76
2021/01/08 03:06:46;;;;;;;0.30;0.30;;;4.40;99.90;;;;;;4961061;28;20660;-75
2021/01/08 03:09:11;;;;;;;0.77;0.77;;;4.40;99.90;;;;;;4943343;29;20265;-76
2021/01/08 03:11:38;;;;;;;0.25;0.25;;;4.30;99.90;;;;;;4961045;29;20290;-75
2021/01/08 03:14:05;;;;;;;0.50;0.50;;;4.50;99.90;;;;;;4961228;28;20320;-76
2021/01/08 03:16:31;;;;;;;0.50;0.50;;;4.50;99.90;;;;;;4960963;29;20166;-76
2021/01/08 03:18:58;;;;;;;0.20;0.20;;;4.30;99.90;;;;;;4960854;29;20174;-77
2021/01/08 03:21:23;;;;;;;0.22;0.22;;;4.30;99.90;;;;;;4960907;29;20594;-76
2021/01/08 03:23:49;;;;;;;0.20;0.20;;;4.40;99.90;;;;;;4960825;28;20278;-76
2021/01/08 03:26:15;;;;;;;0.60;0.60;;;4.50;99.90;;;;;;4960656;28;20209;-75
2021/01/08 03:28:40;;;;;;;0.40;0.40;;;4.50;99.90;;;;;;4943656;29;20509;-76
2021/01/08 03:31:06;;;;;;;3.40;1.15;;;4.40;99.90;;;;;;4960861;28;20202;-75
2021/01/08 03:33:31;;;;;;;2.35;1.55;;;4.40;99.90;;;;;;4960836;28;20189;-76
2021/01/08 03:35:57;;;;;;;0.50;0.50;;;4.40;99.90;;;;;;4960408;28;20252;-76
2021/01/08 03:38:22;;;;;;;0.70;0.70;;;4.40;99.90;;;;;;4960872;29;20159;-76
2021/01/08 03:40:48;;;;;;;0.98;0.85;;;4.20;99.90;;;;;;4960693;29;20170;-76
2021/01/08 03:43:13;;;;;;;1.85;1.75;;;4.20;99.90;;;;;;4960711;29;20198;-76
2021/01/08 03:45:39;;;;;;;0.85;0.85;;;4.30;99.90;;;;;;4960384;28;20253;-75
2021/01/08 03:48:05;;;;;;;5.68;0.73;;;4.30;99.90;;;;;;4960758;28;20155;-76
2021/01/08 03:50:31;;;;;;;0.30;0.30;;;4.20;99.90;;;;;;4960545;28;20170;-75
2021/01/08 03:52:57;;;;;;;0.70;0.70;;;4.10;99.90;;;;;;4960638;28;20175;-75
2021/01/08 03:55:23;;;;;;;1.50;0.93;;;4.20;99.90;;;;;;4960430;28;20253;-75
2021/01/08 03:57:48;;;;;;;0.65;0.65;;;4.10;99.90;;;;;;4960712;29;20158;-77
2021/01/08 04:00:14;;;;;;;0.25;0.25;;;4.30;99.90;;;;;;4957034;28;20324;-76
2021/01/08 04:02:40;;;;;;;1.55;1.52;;;4.30;99.90;;;;;;4957299;29;20167;-75
2021/01/08 04:05:06;;;;;;;0.43;0.43;;;4.30;99.90;;;;;;4957354;28;20221;-75
2021/01/08 04:07:32;;;;;;;0.20;0.20;;;4.30;99.90;;;;;;4957577;29;20170;-76
2021/01/08 04:09:58;;;;;;;0.85;0.60;;;4.40;99.90;;;;;;4957352;29;20167;-75
2021/01/08 04:12:23;;;;;;;0.75;0.75;;;4.20;99.90;;;;;;4957177;29;20167;-76
2021/01/08 04:14:49;;;;;;;0.82;0.82;;;4.20;99.90;;;;;;4957317;28;20186;-75
2021/01/08 04:17:14;;;;;;;0.60;0.60;;;4.20;99.90;;;;;;4957335;29;20171;-76
2021/01/08 04:19:40;;;;;;;2.90;2.25;;;4.30;99.90;;;;;;4957299;29;20167;-75
2021/01/08 04:22:05;;;;;;;0.30;0.30;;;4.40;99.90;;;;;;4956980;29;20234;-75
2021/01/08 04:24:31;;;;;;;0.57;0.57;;;4.40;99.90;;;;;;4957090;28;20194;-75
2021/01/08 04:26:57;;;;;;;0.63;0.63;;;4.40;99.90;;;;;;4957174;29;20213;-77
2021/01/08 04:29:22;;;;;;;1.92;1.83;;;4.30;99.90;;;;;;4957003;29;20166;-75
2021/01/08 04:31:48;;;;;;;0.50;0.50;;;4.30;99.90;;;;;;4956854;29;20171;-75
2021/01/08 04:34:13;;;;;;;0.65;0.65;;;4.30;99.90;;;;;;4957239;28;20607;-76
2021/01/08 04:36:39;;;;;;;1.08;1.08;;;4.20;99.90;;;;;;4957059;29;20229;-75
2021/01/08 04:39:05;;;;;;;6.20;1.10;;;4.10;99.90;;;;;;4956769;29;20709;-75
2021/01/08 04:41:31;;;;;;;0.38;0.38;;;4.30;99.90;;;;;;4939718;29;20170;-77
2021/01/08 04:43:58;;;;;;;1.40;1.02;;;4.20;99.90;;;;;;4957337;29;20155;-75
2021/01/08 04:46:28;;;;;;;2.90;2.00;;;4.30;99.90;;;;;;4956569;28;20686;-75
2021/01/08 04:48:57;;;;;;;0.57;0.57;;;4.40;99.90;;;;;;4956420;29;20171;-75
2021/01/08 04:51:24;;;;;;;1.10;1.10;;;4.40;99.90;;;;;;4956540;29;20261;-74
2021/01/08 04:53:51;;;;;;;0.40;0.40;;;4.30;99.90;;;;;;4956605;29;20209;-75
2021/01/08 04:56:18;;;;;;;0.40;0.40;;;4.40;99.90;;;;;;4956398;28;20189;-75
2021/01/08 04:58:45;;;;;;;0.43;0.43;;;4.30;99.90;;;;;;4939035;29;20214;-76
2021/01/08 05:01:11;;;;;;;0.47;0.47;;;4.20;99.90;;;;;;4939213;29;20179;-75
2021/01/08 05:03:37;;;;;;;3.50;2.67;;;4.20;99.90;;;;;;4956525;29;20653;-77
2021/01/08 05:06:03;;;;;;;6.93;1.95;;;4.20;99.90;;;;;;4955734;28;20207;-76
2021/01/08 05:08:28;;;;;;;0.82;0.82;;;4.10;99.90;;;;;;4956236;29;20174;-75
2021/01/08 05:10:56;;;;;;;0.73;0.73;;;4.10;99.90;;;;;;4955136;28;20170;-75
2021/01/08 05:13:31;;;;;;;0.47;0.47;;;4.10;99.90;;;;;;4956091;29;20603;-75
2021/01/08 05:16:01;;;;;;;0.80;0.80;;;4.10;99.90;;;;;;4955922;28;20530;-78
2021/01/08 05:18:30;;;;;;;1.08;1.00;;;4.10;99.90;;;;;;4955818;29;20151;-75
2021/01/08 05:20:56;;;;;;;1.17;1.05;;;4.20;99.90;;;;;;4956177;29;20178;-73
2021/01/08 05:23:22;;;;;;;0.98;0.98;;;4.20;99.90;;;;;;4956224;29;20246;-75
2021/01/08 05:25:47;;;;;;;0.28;0.28;;;4.30;99.90;;;;;;4955708;28;20206;-77
2021/01/08 05:28:17;;;;;;;0.85;0.57;;;4.30;99.90;;;;;;4956046;29;20170;-80
2021/01/08 05:30:43;;;;;;;1.27;1.25;;;4.10;99.90;;;;;;4955763;29;20627;-76
2021/01/08 05:33:13;;;;;;;0.40;0.40;;;4.20;99.90;;;;;;4955621;29;20174;-76
2021/01/08 05:35:39;;;;;;;0.77;0.77;;;4.30;99.90;;;;;;4955750;28;20197;-75
2021/01/08 05:38:06;;;;;;;0.68;0.68;;;4.20;99.90;;;;;;4955524;29;20618;-76
2021/01/08 05:40:32;;;;;;;1.00;1.00;;;4.40;99.90;;;;;;4955602;29;20167;-75
2021/01/08 05:43:00;;;;;;;1.20;1.00;;;4.40;99.90;;;;;;4955359;29;20170;-75
2021/01/08 05:45:27;;;;;;;0.30;0.30;;;4.20;99.90;;;;;;4955591;28;20206;-74
2021/01/08 05:47:56;;;;;;;1.23;1.23;;;4.20;99.90;;;;;;4955567;29;20622;-76
2021/01/08 05:50:24;;;;;;;0.95;0.95;;;4.20;99.90;;;;;;4955673;29;20252;-75
2021/01/08 05:53:05;;;;;;;0.40;0.40;;;4.20;99.90;;;;;;4955096;29;20693;-76
2021/01/08 05:55:39;;;;;;;0.30;0.30;;;4.20;99.90;;;;;;4955501;28;20186;-74
2021/01/08 05:58:17;;;;;;;1.00;0.77;;;4.30;99.90;;;;;;4955486;29;20587;-74
2021/01/08 06:00:42;;;;;;;0.60;0.60;;;4.20;99.90;;;;;;4954973;29;20222;-75
2021/01/08 06:03:09;;;;;;;0.50;0.50;;;4.40;99.90;;;;;;4955281;29;20191;-75
2021/01/08 06:05:37;;;;;;;1.30;1.20;;;4.40;99.90;;;;;;4954786;28;20214;-75
2021/01/08 06:08:04;;;;;;;3.28;1.58;;;4.20;99.90;;;;;;4955251;29;20749;-76
2021/01/08 06:10:32;;;;;;;5.07;0.95;;;4.30;99.90;;;;;;4955034;29;20205;-75
2021/01/08 06:12:58;;;;;;;1.48;1.38;;;4.20;99.90;;;;;;4955086;29;20651;-76
2021/01/08 06:15:25;;;;;;;2.20;1.25;;;4.30;99.90;;;;;;4954968;28;20531;-74
2021/01/08 06:17:51;;;;;;;6.00;1.02;;;4.40;99.90;;;;;;4954791;29;20242;-75
2021/01/08 06:20:17;;;;;;;3.30;2.47;;;4.30;99.90;;;;;;4955025;29;20533;-74
2021/01/08 06:22:43;;;;;;;0.50;0.50;;;4.20;99.90;;;;;;4954595;28;20178;-74
2021/01/08 06:25:10;;;;;;;0.65;0.50;;;4.30;99.90;;;;;;4954708;28;20237;-75
2021/01/08 06:27:36;;;;;;;0.90;0.90;;;4.20;99.90;;;;;;4954711;29;20626;-75
2021/01/08 06:30:07;;;;;;;1.02;1.02;;;4.10;99.90;;;;;;4954746;29;20177;-75
2021/01/08 06:32:34;;;;;;;0.50;0.50;;;4.10;99.90;;;;;;4954658;29;20174;-75
2021/01/08 06:35:08;;;;;;;0.22;0.22;;;4.20;99.90;;;;;;4954569;28;20285;-75
2021/01/08 06:37:39;;;;;;;9.98;1.58;;;4.20;99.90;;;;;;4954431;29;20546;-75
2021/01/08 06:40:06;;;;;;;0.52;0.52;;;4.20;99.90;;;;;;4954560;29;20206;-75
2021/01/08 06:42:32;;;;;;;3.38;1.42;;;4.20;99.90;;;;;;4954678;29;20158;-75
2021/01/08 06:44:59;;;;;;;0.40;0.40;;;4.10;99.90;;;;;;4954310;28;20191;-76
2021/01/08 06:47:28;;;;;;;0.98;0.98;;;4.10;99.90;;;;;;4936831;29;20257;-74
2021/01/08 06:49:56;;;;;;;0.68;0.68;;;4.20;99.90;;;;;;4954758;29;20489;-75
2021/01/08 06:52:23;;;;;;;1.67;1.58;;;4.20;99.90;;;;;;4954650;29;20253;-75
2021/01/08 06:54:53;;;;;;;2.03;1.92;;;4.10;99.90;;;;;;4954000;28;20207;-78
2021/01/08 06:57:21;;;;;;;0.88;0.88;;;4.30;99.90;;;;;;4937383;29;20163;-75
2021/01/08 07:00:04;;;;;;;3.58;2.92;;;4.40;99.90;;;;;;4954125;29;20222;-80
2021/01/08 07:02:32;;;;;;;1.02;1.02;;;4.40;99.90;;;;;;4936923;29;20182;-85
2021/01/08 07:04:59;;;;;;;4.43;1.70;;;4.40;99.90;;;;;;4937165;29;20194;-82
2021/01/08 07:07:26;;;;;;;0.95;0.95;;;4.20;99.90;;;;;;4954379;29;20182;-79
2021/01/08 07:09:56;;;;;;;0.43;0.43;;;4.20;99.90;;;;;;4936984;29;20298;-79
2021/01/08 07:12:26;;;;;;;0.70;0.70;;;4.20;99.90;;;;;;4936722;29;20277;-75
2021/01/08 07:14:52;;;;;;;0.50;0.50;;;4.10;99.90;;;;;;4954208;28;20600;-76
2021/01/08 07:17:31;;;;;;;0.90;0.82;;;4.20;99.90;;;;;;4954353;29;20174;-76
2021/01/08 07:20:00;;;;;;;0.65;0.65;;;4.00;99.90;;;;;;4954079;29;20249;-76
2021/01/08 07:22:32;;;;;;;1.92;1.17;;;4.10;99.90;;;;;;4953484;29;20525;-75
2021/01/08 07:24:58;;;;;;;3.50;2.20;;;4.20;99.90;;;;;;4954037;28;20663;-75
2021/01/08 07:27:25;;;;;;;1.75;1.13;;;4.20;99.90;;;;;;4954140;29;20198;-76
2021/01/08 07:30:17;;;;;;;0.90;0.90;;;4.30;99.90;;;;;;4953912;29;20250;-76
2021/01/08 07:32:47;;;;;;;0.68;0.68;;;4.10;99.90;;;;;;4950783;29;20327;-75
2021/01/08 07:35:32;;;;;;;1.52;1.27;;;4.20;99.90;;;;;;4956371;28;20194;-75
2021/01/08 07:38:08;;;;;;;1.33;1.23;;;4.30;99.90;;;;;;4945032;29;20178;-75
2021/01/08 07:40:38;;;;;;;2.42;0.70;;;4.40;99.90;;;;;;4938105;29;20178;-74
2021/01/08 07:43:08;;;;;;;2.35;1.77;;;4.40;99.90;;;;;;4938107;29;20304;-76
2021/01/08 07:45:59;;;;;;;11.85;1.65;;;4.30;99.90;;;;;;4937867;29;20253;-76
2021/01/08 07:48:38;;;;;;;1.83;1.67;;;4.30;99.90;;;;;;4937941;29;20546;-75
2021/01/08 07:51:10;;;;;;;1.98;1.88;;;4.30;99.90;;;;;;4938778;29;20158;-76
2021/01/08 07:53:42;;;;;;;1.02;0.93;;;4.30;99.90;;;;;;4921506;29;20250;-75
2021/01/08 07:56:09;;;;;;;1.80;1.70;;;4.20;99.90;;;;;;4938203;29;20648;-77
2021/01/08 07:58:36;;;;;;;4.85;1.30;;;4.20;99.90;;;;;;4921328;29;20256;-81
2021/01/08 08:01:09;;;;;;;1.33;1.23;;;4.10;99.90;;;;;;4938302;29;20246;-83
2021/01/08 08:03:36;;;;;;;1.48;1.48;;;4.00;99.90;;;;;;4938019;29;20175;-75
2021/01/08 08:06:05;;;;;;;5.35;1.65;;;4.10;99.90;;;;;;4937789;29;20211;-75
2021/01/08 08:08:31;;;;;;;3.10;1.77;;;4.20;99.90;;;;;;4938362;29;20226;-75
2021/01/08 08:11:16;;;;;;;1.65;0.75;;;4.00;99.90;;;;;;4938345;29;20203;-78
2021/01/08 08:13:44;;;;;;;3.53;1.55;;;3.90;99.90;;;;;;4938217;29;20523;-80
2021/01/08 08:16:10;;;;;;;1.00;1.00;;;4.00;99.90;;;;;;4937900;29;20258;-74
2021/01/08 08:18:52;;;;;;;0.65;0.65;;;4.00;99.90;;;;;;4926808;29;20179;-76
2021/01/08 08:21:19;;;;;;;1.25;1.25;;;4.10;99.90;;;;;;4917594;29;20251;-76
2021/01/08 08:24:01;;;;;;;1.35;1.25;;;4.20;99.90;;;;;;4900815;29;20262;-76
2021/01/08 08:26:28;;;;;;;1.23;0.88;;;4.30;99.90;;;;;;4917519;29;20302;-76
2021/01/08 08:29:14;;;;;;;1.38;1.25;;;4.20;99.90;;;;;;4917479;29;20178;-76
2021/01/08 08:31:46;;;;;;;1.20;1.20;;;4.20;99.90;;;;;;4917643;29;20271;-74
2021/01/08 08:34:14;;;;;;;0.38;0.38;;;4.30;99.90;;;;;;4917703;29;20239;-75
2021/01/08 08:36:40;;;;;;;1.10;1.10;;;4.30;99.90;;;;;;4917881;29;20179;-75
2021/01/08 08:39:10;;;;;;;7.18;1.08;;;4.30;99.90;;;;;;4917368;29;20175;-76
2021/01/08 08:41:38;;;;;;;24.35;5.05;;;4.20;99.90;;;;;;4917723;29;20251;-75
2021/01/08 08:44:08;;;;;;;1.13;1.05;;;4.20;99.90;;;;;;4917338;29;20907;-75
2021/01/08 08:46:50;;;;;;;5.15;0.93;;;4.30;99.90;;;;;;4900104;29;20219;-75
2021/01/08 08:49:25;;;;;;;0.90;0.90;;;4.40;99.90;;;;;;4954322;29;20201;-76
2021/01/08 08:51:52;;;;;;;1.90;1.13;;;4.50;99.90;;;;;;4938412;29;20178;-75
2021/01/08 08:54:19;;;;;;;6.82;2.25;;;4.50;99.90;;;;;;4938246;28;20177;-77
2021/01/08 08:56:47;;;;;;;5.40;1.35;;;4.50;99.90;;;;;;4955569;29;20218;-78
2021/01/08 08:59:13;;;;;;;0.60;0.60;;;4.60;99.90;;;;;;4955318;29;20526;-75
2021/01/08 09:01:43;;;;;;;0.93;0.93;;;4.60;99.90;;;;;;4955108;29;20166;-88
2021/01/08 09:04:10;;;;;;;1.10;1.10;;;4.60;99.90;;;;;;4955596;28;20492;-75
2021/01/08 09:06:43;;;;;;;3.40;1.65;;;4.60;99.90;;;;;;4954748;29;20206;-79
2021/01/08 09:09:17;;;;;;;3.83;1.60;;;4.60;99.90;;;;;;4937549;29;20230;-82
2021/01/08 09:11:59;;;;;;;0.55;0.55;;;4.70;99.90;;;;;;4937367;29;20177;-78
2021/01/08 09:14:29;;;;;;;1.42;0.75;;;4.70;99.90;;;;;;4953677;28;20202;-76
2021/01/08 09:17:02;;;;;;;2.65;1.38;;;4.80;99.90;;;;;;4954824;29;20185;-76
2021/01/08 09:19:35;;;;;;;0.80;0.80;;;4.70;99.90;;;;;;4954655;29;20173;-81
2021/01/08 09:22:05;;;;;;;6.85;2.25;;;4.90;99.90;;;;;;4938450;29;20176;-79
2021/01/08 09:24:36;;;;;;;3.25;1.17;;;5.00;99.90;;;;;;4934992;29;20686;-81
2021/01/08 09:27:10;;;;;;;2.15;1.95;;;5.00;99.90;;;;;;4935097;29;20226;-82
2021/01/08 09:29:36;;;;;;;1.58;1.48;;;5.00;99.90;;;;;;4933441;29;20168;-80
2021/01/08 09:32:03;;;;;;;1.55;1.40;;;5.10;99.90;;;;;;4935421;29;20367;-79
2021/01/08 09:34:29;;;;;;;1.00;1.00;;;5.10;99.90;;;;;;4918993;29;20191;-80
2021/01/08 09:36:57;;;;;;;1.05;0.90;;;5.00;99.90;;;;;;4934530;29;20172;-80
2021/01/08 09:39:27;;;;;;;6.18;3.08;;;5.20;99.90;;;;;;4928802;29;20175;-81
2021/01/08 09:41:59;;;;;;;0.73;0.73;;;5.30;99.90;;;;;;4934577;29;20182;-80
2021/01/08 09:44:31;;;;;;;2.03;1.92;;;5.40;99.90;;;;;;4935047;29;20199;-80
2021/01/08 09:47:07;;;;;;;3.90;2.90;;;5.30;99.90;;;;;;4948639;29;20205;-85
2021/01/08 09:49:41;;;;;;;1.10;1.10;;;5.30;99.90;;;;;;4937004;29;20178;-82
2021/01/08 09:52:07;;;;;;;1.20;0.93;;;5.10;99.90;;;;;;4954215;29;20257;-78
2021/01/08 09:54:44;;;;;;;1.10;1.08;;;5.30;99.90;;;;;;4956080;28;20194;-86
2021/01/08 09:57:23;;;;;;;3.72;1.98;;;5.10;99.90;;;;;;4953738;28;20174;-85
2021/01/08 09:59:57;;;;;;;3.45;2.13;;;5.40;99.90;;;;;;4946702;29;20214;-84
2021/01/08 10:02:43;;;;;;;0.57;0.57;;;5.50;99.90;;;;;;4950975;29;20221;-84
2021/01/08 10:05:31;;;;;;;11.18;1.92;;;5.50;99.90;;;;;;4936419;29;20293;-83
2021/01/08 10:07:58;;;;;;;1.27;1.20;;;5.40;99.90;;;;;;4932535;29;20175;-77
2021/01/08 10:10:27;;;;;;;5.55;2.40;;;5.50;99.90;;;;;;4934876;29;20512;-76
2021/01/08 10:12:54;;;;;;;1.23;1.23;;;5.60;99.90;;;;;;4934369;29;20203;-77
2021/01/08 10:15:33;;;;;;;1.63;1.52;;;5.60;99.90;;;;;;4934609;29;20647;-78
2021/01/08 10:18:09;;;;;;;9.35;2.83;;;5.70;99.90;;;;;;4943058;29;20202;-80
2021/01/08 10:20:55;;;;;;;1.23;1.23;;;5.90;99.90;;;;;;4944065;28;20167;-77
2021/01/08 10:23:23;;;;;;;0.63;0.63;;;5.70;99.90;;;;;;4929747;29;20535;-81
2021/01/08 10:25:49;;;;;;;2.60;1.48;;;5.80;99.90;;;;;;4935772;29;20262;-92
2021/01/08 10:28:23;;;;;;;3.45;1.23;;;5.90;99.90;;;;;;4940557;29;20183;-77
2021/01/08 10:30:54;;;;;;;0.60;0.60;;;5.80;99.90;;;;;;4926019;28;20172;-77
2021/01/08 10:33:26;;;;;;;1.67;1.58;;;5.90;99.90;;;;;;4931185;29;20171;-76
2021/01/08 10:35:54;;;;;;;0.68;0.68;;;6.20;99.90;;;;;;4935025;29;20187;-87
2021/01/08 10:38:20;;;;;;;1.30;1.15;;;6.00;99.90;;;;;;4936647;29;20168;-84
2021/01/08 10:40:46;;;;;;;0.63;0.63;;;6.00;99.90;;;;;;4936219;29;20163;-89
2021/01/08 10:43:11;;;;;;;0.95;0.95;;;6.00;99.90;;;;;;4933673;29;20530;-81
2021/01/08 10:45:37;;;;;;;9.18;2.08;;;6.00;99.90;;;;;;4934528;29;20207;-81
2021/01/08 10:48:04;;;;;;;1.67;1.58;;;6.10;99.90;;;;;;4934557;29;20246;-80
2021/01/08 10:50:29;;;;;;;0.95;0.95;;;6.10;99.90;;;;;;4934315;29;20996;-81
2021/01/08 10:52:55;;;;;;;0.95;0.95;;;6.30;99.90;;;;;;4934422;29;20207;-76
2021/01/08 10:55:21;;;;;;;0.75;0.75;;;6.20;99.90;;;;;;4934212;29;20644;-81
2021/01/08 10:57:46;;;;;;;1.02;1.00;;;6.30;99.90;;;;;;4933177;29;20293;-81
2021/01/08 11:00:13;;;;;;;4.13;1.50;;;6.30;99.90;;;;;;4932485;29;20691;-81
2021/01/08 11:02:40;;;;;;;3.47;1.45;;;6.50;99.90;;;;;;4934286;29;20168;-79
2021/01/08 11:05:06;;;;;;;5.47;1.33;;;6.50;99.90;;;;;;4934352;29;20229;-81
2021/01/08 11:07:35;;;;;;;0.98;0.98;;;6.40;99.90;;;;;;4934318;29;20210;-80
2021/01/08 11:10:03;;;;;;;0.52;0.52;;;6.20;99.90;;;;;;4938039;29;20179;-79
2021/01/08 11:12:28;;;;;;;4.28;2.22;;;6.20;99.90;;;;;;4937862;29;20215;-80
2021/01/08 11:14:55;;;;;;;1.83;1.75;;;6.10;99.90;;;;;;4938014;29;20230;-77
2021/01/08 11:17:21;;;;;;;1.90;1.52;;;6.20;99.90;;;;;;4941227;29;20233;-78
2021/01/08 11:19:46;;;;;;;1.10;1.10;;;6.20;99.90;;;;;;4955960;29;20170;-77
2021/01/08 11:22:12;;;;;;;1.40;1.15;;;6.40;99.90;;;;;;4956867;28;20758;-79
2021/01/08 11:24:38;;;;;;;0.57;0.57;;;6.60;99.90;;;;;;4955921;28;20190;-79
2021/01/08 11:27:05;;;;;;;0.82;0.82;;;6.50;99.90;;;;;;4956716;28;20740;-78
2021/01/08 11:29:30;;;;;;;1.40;1.35;;;6.60;99.90;;;;;;4956732;28;20262;-80
2021/01/08 11:31:56;;;;;;;1.52;1.33;;;6.60;99.90;;;;;;4955715;29;20326;-77
2021/01/08 11:34:22;;;;;;;2.90;1.77;;;6.60;99.90;;;;;;4955663;28;20163;-80
2021/01/08 11:36:47;;;;;;;3.78;1.13;;;6.50;99.90;;;;;;4955782;29;20190;-80
2021/01/08 11:39:14;;;;;;;1.08;1.08;;;6.40;99.90;;;;;;4956469;28;20649;-76
2021/01/08 11:41:40;;;;;;;1.15;1.10;;;6.50;99.90;;;;;;4956846;28;20170;-77
2021/01/08 11:44:06;;;;;;;0.50;0.50;;;6.50;99.90;;;;;;4956488;28;20230;-78
2021/01/08 11:46:32;;;;;;;4.70;1.15;;;6.40;99.90;;;;;;4956840;28;20217;-87
2021/01/08 11:48:58;;;;;;;5.35;1.75;;;6.50;99.90;;;;;;4956617;28;20170;-76
2021/01/08 11:51:24;;;;;;;1.35;1.05;;;6.50;99.90;;;;;;4956513;28;20166;-76
2021/01/08 11:53:52;;;;;;;3.65;1.35;;;6.40;99.90;;;;;;4955700;28;20520;-76
2021/01/08 11:56:25;;;;;;;1.90;1.80;;;6.40;99.90;;;;;;4956311;28;20241;-76
2021/01/08 11:58:51;;;;;;;1.17;1.05;;;6.30;99.90;;;;;;4961604;28;20214;-76
2021/01/08 12:01:16;;;;;;;1.33;1.00;;;6.40;99.90;;;;;;4957044;29;20174;-76
2021/01/08 12:03:42;;;;;;;1.35;1.25;;;6.40;99.90;;;;;;4955914;29;20527;-77
2021/01/08 12:06:08;;;;;;;0.63;0.63;;;6.40;99.90;;;;;;4955877;28;20704;-76
2021/01/08 12:08:36;;;;;;;0.93;0.93;;;6.50;99.90;;;;;;4955822;29;20249;-77
2021/01/08 12:11:02;;;;;;;1.05;1.05;;;6.60;99.90;;;;;;4955737;29;20163;-77
2021/01/08 12:13:28;;;;;;;1.13;1.13;;;6.80;99.90;;;;;;4956310;29;20206;-78
2021/01/08 12:15:53;;;;;;;2.00;1.48;;;6.90;99.90;;;;;;4956222;28;20284;-76
2021/01/08 12:18:19;;;;;;;1.20;1.08;;;7.10;99.90;;;;;;4955690;29;20179;-78
2021/01/08 12:20:46;;;;;;;5.88;2.10;;;7.00;99.90;;;;;;4937487;29;20180;-75
2021/01/08 12:23:13;;;;;;;1.77;1.67;;;7.20;99.90;;;;;;4955763;29;20170;-79
2021/01/08 12:25:39;;;;;;;0.40;0.40;;;7.20;99.90;;;;;;4944748;28;20227;-77
2021/01/08 12:28:11;;;;;;;0.85;0.85;;;6.90;99.90;;;;;;4919785;29;20207;-78
2021/01/08 12:30:37;;;;;;;0.60;0.60;;;7.00;99.90;;;;;;4936066;29;20183;-77
2021/01/08 12:33:03;;;;;;;0.75;0.75;;;7.10;99.90;;;;;;4936343;29;20168;-77
2021/01/08 12:35:30;;;;;;;1.88;1.77;;;7.10;99.90;;;;;;4936411;29;20237;-75
2021/01/08 12:37:56;;;;;;;0.98;0.98;;;7.30;99.90;;;;;;4936335;29;20164;-77
2021/01/08 12:40:22;;;;;;;0.70;0.70;;;7.40;99.90;;;;;;4936342;29;20171;-77
2021/01/08 12:42:49;;;;;;;1.08;1.08;;;7.30;99.90;;;;;;4936451;29;20176;-77
2021/01/08 12:45:16;;;;;;;4.93;1.33;;;7.40;99.90;;;;;;4935803;29;20219;-75
2021/01/08 12:47:42;;;;;;;1.70;1.38;;;7.20;99.90;;;;;;4935752;29;20587;-77
2021/01/08 12:50:08;;;;;;;3.40;1.50;;;7.00;99.90;;;;;;4919023;29;20163;-77
2021/01/08 12:52:34;;;;;;;9.32;2.25;;;7.30;99.90;;;;;;4936441;29;20186;-75
2021/01/08 12:55:00;;;;;;;0.82;0.82;;;7.40;99.90;;;;;;4918191;29;20230;-76
2021/01/08 12:57:26;;;;;;;1.33;1.33;;;7.40;99.90;;;;;;4936153;29;20644;-75
2021/01/08 12:59:52;;;;;;;1.25;1.25;;;7.20;99.90;;;;;;4935978;29;20219;-75
2021/01/08 13:02:17;;;;;;;0.93;0.93;;;7.00;99.90;;;;;;4936225;29;20175;-76